Horseshoe Bend, ID (83629)

9:12 PM MDT on May 26, 2015 (GMT -0600)
Brownlee | | Change Station
CLOSE
Current Station
Personal Weather Station
Location: Sweet, ID
Elevation: 3400 ft
Nearby Weather Stations

Elev 3400 ft 44.01 °N, 116.27 °W | Updated 14 seconds ago

Partly Cloudy
Partly Cloudy
65.8 °F
Feels Like 65.8 °F
N
6.0
Wind Variable Wind from NNE
Gusts 7.0 mph

Today
High -- | Low -- °F
--% Chance of Precip.
Yesterday
High -- | Low -- °F
Precip. -- in
6:09 AM 9:15 PM
Waxing Gibbous, 63% visible
Pressure 29.80 in
Visibility 10.0 miles
Clouds Clear
Dew Point 42 °F
Humidity 41%
Rainfall 0.00 in
Snow Depth Not available.
UV 0 out of 12
Pollen 7.60 out of 12
Air Quality Not available.
Flu Activity Sporadic
METAR KBOI 270253Z 18006KT 10SM CLR 21/07 A2985 RMK AO2 SLP090 T02110067 57004

More Conditions Fewer Conditions

Pressure 29.80 in
Visibility 10.0 miles
Clouds Clear
Dew Point 42 °F
Humidity 41%
Rainfall 0.00 in
Snow Depth Not available.
UV 0 out of 12
Pollen 7.60 out of 12
Air Quality Not available.
Flu Activity Sporadic
METAR KBOI 270253Z 18006KT 10SM CLR 21/07 A2985 RMK AO2 SLP090 T02110067 57004

More Conditions Fewer Conditions

10-Day Weather Forecast

Almanac

Astronomy

May. 26, 2015 Rise Set
Actual Time
Civil Twilight
Nautical Twilight
Astronomical Twilight
Moon
Length of Visible Light
Length of Day
Tomorrow will be .
, % of the Moon is Illuminated

Today's Extremes

State Highs State Lows

Community

WunderPhotos

Upload Photos

1,824,577 photos uploaded!

WunderBlogs® & News

Nearby

Air Quality

  Air Quality AQ Index Pollutant
Not available.

Snow Depth

Station Depth Elevation

Earthquake Activity

City Distance Mag. Time & Date
Minimum magnitude displayed is 2.5.

Coastal Water Temperatures

Place Temperature

Stations

Nearby Weather Stations

Station Location Temp. Windchill Dew Point Humidity Wind Precip. Elev Updated Type